createdAt,value
2023-11-10T00:03:00.348Z,2.47
2023-11-10T00:06:25.252Z,3.13
2023-11-10T00:09:49.248Z,3.33
2023-11-10T00:13:13.222Z,1.65
2023-11-10T00:16:36.216Z,2.05
2023-11-10T00:19:59.245Z,4.75
2023-11-10T00:23:23.270Z,3.30
2023-11-10T00:26:48.247Z,2.08
2023-11-10T00:30:11.279Z,2.33
2023-11-10T00:33:35.287Z,2.45
2023-11-10T00:36:59.273Z,2.75
2023-11-10T00:40:24.221Z,3.33
2023-11-10T00:43:48.235Z,2.53
2023-11-10T00:47:13.218Z,1.55
2023-11-10T00:50:36.263Z,3.72
2023-11-10T00:53:59.243Z,3.42
2023-11-10T00:57:23.283Z,3.47
2023-11-10T01:00:49.108Z,2.45
2023-11-10T01:04:13.352Z,1.27
2023-11-10T01:07:37.259Z,1.70
2023-11-10T01:11:01.295Z,3.45
2023-11-10T01:14:24.256Z,5.10
2023-11-10T01:17:49.320Z,3.42
2023-11-10T01:21:13.280Z,2.58
2023-11-10T01:24:38.296Z,2.85
2023-11-10T01:28:05.286Z,2.58
2023-11-10T01:31:29.286Z,2.75
2023-11-10T01:34:52.268Z,3.30
2023-11-10T01:38:17.307Z,3.38
2023-11-10T01:41:42.337Z,3.92
2023-11-10T01:45:05.260Z,3.40
2023-11-10T01:48:29.394Z,3.22
2023-11-10T01:51:53.267Z,1.88
2023-11-10T01:55:17.374Z,1.88
2023-11-10T01:58:33.901Z,2.35
2023-11-10T02:01:54.358Z,2.58
2023-11-10T02:05:17.282Z,1.83
2023-11-10T02:08:41.318Z,3.33
2023-11-10T02:12:04.295Z,2.50
2023-11-10T02:15:28.339Z,2.05
2023-11-10T02:18:53.319Z,2.45
2023-11-10T02:22:17.307Z,3.22
2023-11-10T02:25:41.309Z,2.90
2023-11-10T02:29:05.347Z,2.88
2023-11-10T02:32:29.344Z,3.63
2023-11-10T02:35:53.327Z,5.35
2023-11-10T02:39:16.343Z,2.90
2023-11-10T02:42:39.395Z,2.35
2023-11-10T02:45:55.383Z,3.03
2023-11-10T02:49:18.304Z,2.58
2023-11-10T02:52:43.366Z,2.88
2023-11-10T02:56:07.314Z,3.67
2023-11-10T02:59:31.318Z,1.92
2023-11-10T03:02:56.413Z,3.17
2023-11-10T03:06:20.478Z,3.28
2023-11-10T03:09:44.346Z,3.90
2023-11-10T03:13:07.355Z,2.13
2023-11-10T03:16:31.296Z,3.97
2023-11-10T03:19:54.330Z,2.80
2023-11-10T03:23:18.329Z,3.65
2023-11-10T03:26:41.362Z,4.03
2023-11-10T03:30:05.338Z,5.03
2023-11-10T03:33:23.364Z,4.75
2023-11-10T03:36:47.406Z,2.42
2023-11-10T03:40:12.388Z,4.20
2023-11-10T03:43:35.378Z,4.63
2023-11-10T03:46:59.374Z,5.82
2023-11-10T03:50:22.370Z,4.32
2023-11-10T03:53:47.371Z,4.22
2023-11-10T03:57:10.346Z,4.72
2023-11-10T04:00:41.739Z,5.10
2023-11-10T04:04:10.471Z,3.03
2023-11-10T04:07:33.486Z,3.72
2023-11-10T04:10:56.352Z,5.32
2023-11-10T04:14:13.396Z,5.60
2023-11-10T04:17:37.394Z,3.50
2023-11-10T04:21:00.389Z,2.67
2023-11-10T04:24:24.387Z,3.40
2023-11-10T04:27:48.430Z,3.20
2023-11-10T04:31:11.435Z,1.50
2023-11-10T04:34:35.459Z,2.97
2023-11-10T04:37:59.434Z,3.35
2023-11-10T04:41:26.444Z,4.38
2023-11-10T04:44:49.386Z,3.17
2023-11-10T04:48:13.444Z,3.00
2023-11-10T04:51:38.451Z,2.15
2023-11-10T04:55:01.455Z,6.53
2023-11-10T04:58:24.432Z,4.13
2023-11-10T05:01:51.448Z,3.67
2023-11-10T05:05:16.754Z,3.80
2023-11-10T05:08:41.381Z,4.65
2023-11-10T05:12:05.385Z,2.63
2023-11-10T05:15:23.035Z,2.95
2023-11-10T05:22:15.399Z,3.60
2023-11-10T05:25:39.437Z,3.83
2023-11-10T05:29:04.402Z,3.67
2023-11-10T05:32:28.582Z,3.63
2023-11-10T05:35:52.409Z,2.78
2023-11-10T05:39:17.443Z,2.90
2023-11-10T05:42:40.431Z,3.28
2023-11-10T05:46:04.668Z,4.47
2023-11-10T05:49:29.397Z,4.78
2023-11-10T05:52:53.527Z,2.63
2023-11-10T05:56:21.764Z,3.42
2023-11-10T05:59:46.596Z,1.95
2023-11-10T06:03:11.611Z,3.95
2023-11-10T06:06:36.534Z,2.58
2023-11-10T06:10:00.452Z,5.10
2023-11-10T06:13:23.444Z,4.32
2023-11-10T06:16:45.156Z,4.78
2023-11-10T06:20:11.459Z,3.72
2023-11-10T06:23:36.418Z,3.15
2023-11-10T06:27:01.528Z,2.80
2023-11-10T06:30:28.491Z,4.20
2023-11-10T06:33:51.499Z,4.60
2023-11-10T06:37:14.454Z,4.72
2023-11-10T06:40:37.484Z,3.80
2023-11-10T06:44:01.451Z,3.67
2023-11-10T06:47:25.608Z,3.35
2023-11-10T06:50:43.458Z,5.05
2023-11-10T06:54:07.441Z,5.63
2023-11-10T06:57:32.480Z,3.75
2023-11-10T07:00:57.488Z,6.47
2023-11-10T07:04:21.575Z,5.30
2023-11-10T07:07:45.460Z,3.58
2023-11-10T07:11:10.778Z,4.63
2023-11-10T07:14:33.652Z,4.50
2023-11-10T07:17:56.511Z,5.18
2023-11-10T07:21:22.497Z,5.38
2023-11-10T07:24:45.489Z,5.93
2023-11-10T07:28:12.468Z,6.82
2023-11-10T07:31:37.548Z,5.63
2023-11-10T07:35:02.636Z,6.70
2023-11-10T07:38:26.491Z,7.03
2023-11-10T07:41:51.445Z,5.43
2023-11-10T07:45:14.502Z,10.30
2023-11-10T07:48:37.593Z,5.72
2023-11-10T07:52:03.527Z,4.90
2023-11-10T07:55:27.465Z,7.93
2023-11-10T07:58:51.530Z,6.63
2023-11-10T08:02:14.459Z,5.72
2023-11-10T08:05:39.510Z,4.88
2023-11-10T08:09:03.471Z,6.55
2023-11-10T08:12:26.556Z,5.18
2023-11-10T08:15:52.554Z,5.90
2023-11-10T08:19:15.499Z,4.63
2023-11-10T08:22:40.467Z,5.40
2023-11-10T08:26:03.515Z,5.68
2023-11-10T08:29:27.499Z,6.78
2023-11-10T08:32:51.527Z,8.55
2023-11-10T08:36:15.522Z,4.47
2023-11-10T08:39:38.526Z,6.55
2023-11-10T08:43:01.600Z,5.70
2023-11-10T08:46:19.402Z,7.60
2023-11-10T08:49:36.601Z,7.45
2023-11-10T08:52:59.497Z,5.15
2023-11-10T08:56:22.529Z,7.45
2023-11-10T08:59:46.506Z,8.98
2023-11-10T09:03:09.575Z,8.18
2023-11-10T09:06:32.527Z,7.05
2023-11-10T09:09:59.567Z,10.32
2023-11-10T09:13:22.515Z,7.47
2023-11-10T09:16:45.684Z,9.85
2023-11-10T09:20:11.096Z,10.75
2023-11-10T09:23:37.553Z,10.57
2023-11-10T09:27:00.492Z,8.65
2023-11-10T09:30:23.564Z,9.80
2023-11-10T09:33:47.565Z,7.68
2023-11-10T09:37:13.532Z,7.47
2023-11-10T09:40:37.533Z,6.05
2023-11-10T09:44:02.559Z,5.80
2023-11-10T09:47:20.145Z,7.30
2023-11-10T09:50:38.722Z,5.85
2023-11-10T09:54:01.512Z,6.03
2023-11-10T09:57:28.138Z,7.28
2023-11-10T10:00:52.554Z,7.30
2023-11-10T10:04:16.602Z,7.65
2023-11-10T10:07:40.551Z,7.35
2023-11-10T10:11:05.550Z,4.32
2023-11-10T10:14:28.533Z,7.35
2023-11-10T10:17:52.668Z,5.53
2023-11-10T10:21:15.566Z,4.97
2023-11-10T10:24:38.601Z,3.88
2023-11-10T10:28:02.576Z,5.93
2023-11-10T10:31:21.790Z,3.97
2023-11-10T10:34:48.538Z,5.43
2023-11-10T10:38:18.556Z,6.03
2023-11-10T10:41:43.537Z,4.03
2023-11-10T10:45:08.250Z,5.03
2023-11-10T10:48:25.290Z,4.90
2023-11-10T10:51:47.565Z,4.88
2023-11-10T10:55:10.597Z,4.70
2023-11-10T10:58:37.678Z,4.53
2023-11-10T11:02:01.590Z,3.30
2023-11-10T11:05:51.599Z,3.33
2023-11-10T11:09:15.598Z,5.10
2023-11-10T11:13:31.632Z,4.05
2023-11-10T11:17:09.611Z,3.50
2023-11-10T11:20:32.560Z,4.78
2023-11-10T11:23:55.595Z,4.28
2023-11-10T11:27:22.697Z,4.00
2023-11-10T11:30:51.607Z,4.35
2023-11-10T11:34:19.585Z,6.82
2023-11-10T11:37:48.701Z,3.92
2023-11-10T11:41:12.636Z,5.88
2023-11-10T11:44:47.586Z,7.35
2023-11-10T11:48:13.563Z,5.72
2023-11-10T11:51:37.635Z,9.50
2023-11-10T11:55:03.655Z,4.78
2023-11-10T11:58:29.581Z,7.35
2023-11-10T12:01:58.752Z,4.25
2023-11-10T12:05:23.608Z,3.75
2023-11-10T12:08:47.591Z,4.60
2023-11-10T12:12:11.675Z,6.18
2023-11-10T12:15:37.651Z,5.85
2023-11-10T12:19:06.682Z,4.90
2023-11-10T12:22:31.594Z,3.20
2023-11-10T12:25:54.596Z,2.97
2023-11-10T12:29:30.970Z,5.28
2023-11-10T12:32:56.638Z,5.22
2023-11-10T12:36:22.608Z,3.15
2023-11-10T12:39:47.663Z,4.45
2023-11-10T12:43:12.597Z,3.13
2023-11-10T12:46:36.751Z,5.07
2023-11-10T12:50:01.615Z,6.43
2023-11-10T12:53:25.600Z,6.50
2023-11-10T12:56:50.946Z,7.20
2023-11-10T13:00:28.331Z,6.68
2023-11-10T13:03:47.710Z,6.05
2023-11-10T13:07:12.626Z,5.95
2023-11-10T13:10:36.666Z,5.72
2023-11-10T13:14:01.159Z,6.07
2023-11-10T13:17:27.743Z,7.97
2023-11-10T13:20:50.655Z,10.40
2023-11-10T13:24:14.626Z,7.03
2023-11-10T13:27:40.718Z,5.68
2023-11-10T13:31:11.753Z,6.95
2023-11-10T13:34:40.620Z,9.02
2023-11-10T13:38:05.661Z,7.18
2023-11-10T13:41:36.583Z,4.95
2023-11-10T13:45:04.639Z,6.10
2023-11-10T13:48:29.682Z,5.30
2023-11-10T13:51:52.646Z,4.97
2023-11-10T13:55:15.703Z,4.75
2023-11-10T13:58:38.632Z,5.97
2023-11-10T14:02:02.702Z,3.05
2023-11-10T14:05:26.638Z,5.28
2023-11-10T14:08:49.668Z,7.78
2023-11-10T14:12:12.625Z,7.43
2023-11-10T14:15:36.814Z,7.57
2023-11-10T14:19:00.639Z,6.32
2023-11-10T14:22:25.761Z,5.88
2023-11-10T14:25:51.611Z,6.05
2023-11-10T14:29:15.676Z,5.63
2023-11-10T14:32:40.698Z,5.30
2023-11-10T14:36:04.170Z,8.32
2023-11-10T14:39:30.741Z,4.03
2023-11-10T14:42:55.819Z,4.65
2023-11-10T14:46:23.702Z,5.28
2023-11-10T14:49:53.673Z,6.03
2023-11-10T14:53:42.969Z,6.28
2023-11-10T14:57:08.682Z,5.15
2023-11-10T15:00:31.941Z,4.90
2023-11-10T15:03:56.747Z,6.38
2023-11-10T15:07:22.705Z,4.78
2023-11-10T15:10:45.783Z,4.35
2023-11-10T15:14:09.671Z,5.35
2023-11-10T15:17:34.687Z,7.13
2023-11-10T15:20:59.681Z,4.70
2023-11-10T15:24:22.833Z,5.55
2023-11-10T15:27:45.686Z,4.47
2023-11-10T15:31:09.738Z,5.40
2023-11-10T15:34:34.693Z,5.43
2023-11-10T15:38:02.676Z,3.45
2023-11-10T15:41:26.698Z,4.80
2023-11-10T15:44:50.681Z,5.60
2023-11-10T15:48:13.756Z,4.95
2023-11-10T15:51:44.848Z,4.68
2023-11-10T15:55:20.688Z,6.72
2023-11-10T15:58:43.695Z,6.38
2023-11-10T16:02:07.907Z,6.10
2023-11-10T16:05:26.405Z,4.47
2023-11-10T16:08:45.722Z,4.00
2023-11-10T16:12:03.367Z,5.35
2023-11-10T16:15:21.725Z,5.25
2023-11-10T16:18:46.710Z,5.60
2023-11-10T16:22:10.798Z,6.05
2023-11-10T16:25:34.705Z,4.13
2023-11-10T16:29:00.714Z,5.95
2023-11-10T16:32:25.717Z,5.05
2023-11-10T16:35:49.737Z,7.10
2023-11-10T16:39:14.724Z,7.78
2023-11-10T16:42:39.757Z,9.27
2023-11-10T16:46:03.834Z,5.72
2023-11-10T16:49:30.737Z,7.03
2023-11-10T16:52:53.709Z,5.45
2023-11-10T16:56:16.716Z,7.05
2023-11-10T16:59:42.715Z,7.45
2023-11-10T17:03:05.822Z,8.45
2023-11-10T17:06:28.693Z,7.68
2023-11-10T17:09:52.835Z,7.53
2023-11-10T17:13:09.501Z,7.80
2023-11-10T17:16:29.863Z,6.55
2023-11-10T17:19:53.708Z,8.82
2023-11-10T17:23:17.969Z,6.40
2023-11-10T17:26:42.723Z,5.68
2023-11-10T17:30:05.744Z,8.90
2023-11-10T17:33:29.709Z,7.75
2023-11-10T17:36:53.871Z,8.75
2023-11-10T17:40:17.773Z,7.75
2023-11-10T17:43:41.768Z,9.25
2023-11-10T17:47:04.724Z,10.05
2023-11-10T17:50:28.772Z,11.35
2023-11-10T17:53:53.710Z,9.95
2023-11-10T17:57:17.768Z,7.63
2023-11-10T18:00:42.740Z,9.05
2023-11-10T18:04:05.818Z,9.07
2023-11-10T18:07:30.709Z,9.52
2023-11-10T18:10:54.773Z,8.35
2023-11-10T18:14:13.390Z,6.65
2023-11-10T18:17:29.843Z,6.72
2023-11-10T18:20:55.722Z,9.10
2023-11-10T18:24:19.031Z,9.45
2023-11-10T18:27:41.748Z,6.97
2023-11-10T18:31:04.868Z,7.63
2023-11-10T18:34:28.752Z,5.95
2023-11-10T18:37:51.826Z,6.60
2023-11-10T18:41:17.752Z,9.45
2023-11-10T18:44:40.732Z,5.88
2023-11-10T18:48:05.734Z,7.68
2023-11-10T18:51:28.752Z,8.40
2023-11-10T18:54:53.763Z,8.05
2023-11-10T18:58:17.831Z,7.93
2023-11-10T19:01:41.878Z,6.63
2023-11-10T19:05:05.880Z,7.28
2023-11-10T19:08:28.753Z,9.93
2023-11-10T19:11:53.964Z,9.90
2023-11-10T19:15:17.751Z,7.50
2023-11-10T19:18:43.881Z,7.53
2023-11-10T19:22:06.864Z,7.10
2023-11-10T19:25:30.815Z,9.65
2023-11-10T19:28:53.798Z,8.07
2023-11-10T19:32:17.959Z,7.97
2023-11-10T19:35:43.793Z,8.35
2023-11-10T19:39:07.790Z,7.07
2023-11-10T19:42:31.764Z,9.93
2023-11-10T19:45:55.818Z,8.77
2023-11-10T19:49:18.823Z,9.95
2023-11-10T19:52:41.825Z,8.00
2023-11-10T19:56:05.799Z,9.50
2023-11-10T19:59:29.823Z,7.78
2023-11-10T20:02:53.815Z,6.10
2023-11-10T20:06:19.847Z,6.53
2023-11-10T20:09:42.793Z,8.13
2023-11-10T20:13:06.881Z,9.10
2023-11-10T20:16:33.800Z,5.85
2023-11-10T20:19:57.872Z,6.05
2023-11-10T20:23:28.779Z,10.60
2023-11-10T20:26:52.847Z,6.93
2023-11-10T20:30:19.808Z,7.47
2023-11-10T20:33:43.116Z,7.57
2023-11-10T20:37:06.807Z,11.50
2023-11-10T20:40:29.920Z,7.45
2023-11-10T20:43:53.784Z,5.32
2023-11-10T20:47:16.942Z,7.13
2023-11-10T20:50:40.790Z,6.13
2023-11-10T20:54:04.948Z,8.43
2023-11-10T20:57:27.809Z,8.50
2023-11-10T21:00:51.853Z,7.65
2023-11-10T21:04:18.963Z,7.28
2023-11-10T21:07:42.818Z,8.88
2023-11-10T21:11:08.826Z,6.50
2023-11-10T21:14:33.958Z,8.63
2023-11-10T21:17:58.905Z,6.53
2023-11-10T21:21:25.902Z,7.53
2023-11-10T21:24:49.826Z,9.48
2023-11-10T21:28:16.833Z,6.03
2023-11-10T21:31:40.884Z,5.93
2023-11-10T21:35:06.999Z,8.05
2023-11-10T21:38:32.839Z,6.00
2023-11-10T21:42:03.028Z,6.20
2023-11-10T21:45:27.873Z,8.50
2023-11-10T21:48:51.001Z,6.60
2023-11-10T21:52:13.848Z,7.55
2023-11-10T21:55:37.856Z,6.45
2023-11-10T21:59:00.830Z,6.65
2023-11-10T22:02:24.843Z,6.75
2023-11-10T22:05:50.849Z,7.30
2023-11-10T22:09:14.868Z,5.47
2023-11-10T22:12:39.956Z,7.28
2023-11-10T22:16:02.878Z,6.97
2023-11-10T22:19:25.880Z,4.22
2023-11-10T22:22:51.878Z,5.25
2023-11-10T22:26:14.866Z,8.88
2023-11-10T22:29:37.895Z,6.32
2023-11-10T22:33:01.992Z,8.80
2023-11-10T22:36:25.935Z,7.47
2023-11-10T22:39:48.893Z,7.68
2023-11-10T22:43:07.570Z,7.80
2023-11-10T22:46:25.916Z,5.20
2023-11-10T22:49:48.878Z,6.30
2023-11-10T22:53:14.985Z,7.70
2023-11-10T22:56:37.896Z,5.60
2023-11-10T23:00:02.334Z,5.22
2023-11-10T23:03:27.024Z,7.63
2023-11-10T23:06:50.857Z,5.82
2023-11-10T23:10:13.867Z,7.88
2023-11-10T23:13:37.889Z,5.13
2023-11-10T23:17:02.927Z,5.03
2023-11-10T23:20:33.587Z,5.75
2023-11-10T23:23:59.895Z,5.72
2023-11-10T23:27:22.934Z,4.90
2023-11-10T23:30:48.958Z,6.20
2023-11-10T23:34:12.904Z,6.68
2023-11-10T23:37:38.919Z,5.53
2023-11-10T23:41:04.910Z,6.55
2023-11-10T23:44:30.554Z,6.88
2023-11-10T23:47:56.959Z,6.30
2023-11-10T23:51:21.988Z,7.30
2023-11-10T23:54:45.992Z,4.97
2023-11-10T23:58:08.935Z,7.00
